Leveretts Chapel, Texas
Current Conditions -  °F | °C
As of 3:35 PM on Wednesday 17 Dec 2014 (Local Time) from KRFI Reporting Station
Overcast Overcast  
Wind Chill: 43°   Ceiling: 8000
Heat Index: 47°   Visibility: 10mi
Dew Point: 38°   Wind: 9mph
Humidity: 69%   Direction: 80°E
Pressure: 30.14"   Gusts: NA
Location:  32.2818°N, 94.951°W
Report Text: KRFI 172135Z AUTO 08008KT 10SM SCT048 OVC080 09/03 A3014 RMK AO2 T00860032
Loading
Personal Weather Stations






























Interactive Weather Map New forecast layout! Learn more

10-Day Weather Forecast

Advertisements
Track Severe Weather on mobile